Time;durP1;ratioP1;P1;durP2;ratioP2;P2;SDS_P1;SDS_P2;PMS_P1;PMS_P2;Temp;Humidity;BMP_temperature;BMP_pressure;BME280_temperature;BME280_humidity;BME280_pressure;Samples;Min_cycle;Max_cycle;Signal;HPM_P1;HPM_P2
2021/10/17 00:01:18;;;;;;;;;27.00;22.75;;;;;;;;4641473;29;4358409;-78
2021/10/17 00:04:01;;;;;;;;;25.50;20.50;;;;;;;;3651730;29;18270617;-78
2021/10/17 00:06:30;;;;;;;;;31.00;27.00;;;;;;;;2798100;29;11336648;-81
2021/10/17 00:08:56;;;;;;;;;30.00;21.00;;;;;;;;1896311;29;21767475;-81
2021/10/17 00:11:21;;;;;;;;;20.00;18.00;;;;;;;;1114670;29;52229877;-77
2021/10/17 00:13:47;;;;;;;;;;;;;;;;;;302922;29;93356831;-78
2021/10/17 00:16:12;;;;;;;;;32.50;27.00;;;;;;;;1998250;29;67779815;-78
2021/10/17 00:18:37;;;;;;;;;15.25;13.50;;;;;;;;4786504;29;11271;-82
2021/10/17 00:21:03;;;;;;;;;25.50;23.75;;;;;;;;4786548;29;14217;-78
2021/10/17 00:23:28;;;;;;;;;28.50;26.00;;;;;;;;4799152;29;8850;-79
2021/10/17 00:25:53;;;;;;;;;21.33;14.00;;;;;;;;4792597;29;16720;-80
2021/10/17 00:28:19;;;;;;;;;31.50;25.50;;;;;;;;4786657;29;11134;-79
2021/10/17 00:30:44;;;;;;;;;31.00;28.00;;;;;;;;4797468;29;9065;-82
2021/10/17 00:33:10;;;;;;;;;32.67;29.33;;;;;;;;4797005;29;10837;-81
2021/10/17 00:35:36;;;;;;;;;31.50;28.75;;;;;;;;4809242;29;11638;-78
2021/10/17 00:38:01;;;;;;;;;30.00;27.00;;;;;;;;4801059;29;15662;-81
2021/10/17 00:40:26;;;;;;;;;33.25;27.50;;;;;;;;4659701;29;4357635;-78
2021/10/17 00:42:52;;;;;;;;;28.25;24.75;;;;;;;;4799357;29;8966;-78
2021/10/17 00:45:19;;;;;;;;;32.50;29.25;;;;;;;;4806169;29;13733;-80
2021/10/17 00:47:44;;;;;;;;;27.00;26.25;;;;;;;;4802479;29;8860;-78
2021/10/17 00:50:10;;;;;;;;;34.50;28.50;;;;;;;;4808755;29;8883;-82
2021/10/17 00:52:37;;;;;;;;;30.50;24.00;;;;;;;;4804064;29;8977;-78
2021/10/17 00:55:03;;;;;;;;;26.75;23.75;;;;;;;;4804034;29;8833;-81
2021/10/17 00:57:28;;;;;;;;;26.50;25.75;;;;;;;;4779163;29;11086;-78
2021/10/17 00:59:53;;;;;;;;;29.67;26.00;;;;;;;;4801739;29;12449;-78
2021/10/17 01:02:19;;;;;;;;;36.33;23.00;;;;;;;;4805870;29;10725;-82
2021/10/17 01:04:44;;;;;;;;;27.00;21.00;;;;;;;;4797214;29;13630;-78
2021/10/17 01:07:09;;;;;;;;;26.00;22.00;;;;;;;;4789806;29;11698;-78
2021/10/17 01:09:35;;;;;;;;;31.25;26.50;;;;;;;;4790680;29;12677;-82
2021/10/17 01:12:01;;;;;;;;;21.50;18.50;;;;;;;;4777688;29;9446;-80
2021/10/17 01:14:27;;;;;;;;;33.75;25.25;;;;;;;;4807842;29;8831;-78
2021/10/17 01:16:52;;;;;;;;;25.50;22.50;;;;;;;;4808187;29;14826;-78
2021/10/17 01:19:19;;;;;;;;;27.00;21.25;;;;;;;;4802511;29;14087;-78
2021/10/17 01:21:44;;;;;;;;;23.00;21.75;;;;;;;;4808637;29;12754;-81
2021/10/17 01:24:10;;;;;;;;;28.50;24.75;;;;;;;;4801104;29;8866;-78
2021/10/17 01:26:36;;;;;;;;;24.25;19.25;;;;;;;;4805178;29;8846;-82
2021/10/17 01:29:01;;;;;;;;;31.25;26.00;;;;;;;;4800786;29;8951;-79
2021/10/17 01:31:34;;;;;;;;;27.75;23.75;;;;;;;;4802349;29;8847;-78
2021/10/17 01:33:59;;;;;;;;;25.50;22.50;;;;;;;;4794766;29;15940;-80
2021/10/17 01:36:25;;;;;;;;;28.00;21.75;;;;;;;;4799272;29;15850;-78
2021/10/17 01:38:50;;;;;;;;;23.33;22.33;;;;;;;;4796382;29;14827;-80
2021/10/17 01:41:15;;;;;;;;;30.00;26.00;;;;;;;;4788009;29;16177;-78
2021/10/17 01:43:40;;;;;;;;;30.33;26.00;;;;;;;;4804660;29;15321;-81
2021/10/17 01:46:05;;;;;;;;;41.00;28.00;;;;;;;;4804445;29;13094;-81
2021/10/17 01:48:31;;;;;;;;;36.33;25.67;;;;;;;;4803536;29;12706;-82
2021/10/17 01:50:56;;;;;;;;;31.75;26.00;;;;;;;;4794953;29;10459;-80
2021/10/17 01:53:21;;;;;;;;;29.00;23.67;;;;;;;;4804293;29;8869;-80
2021/10/17 01:55:46;;;;;;;;;28.33;25.67;;;;;;;;4808367;29;13359;-78
2021/10/17 01:58:12;;;;;;;;;33.00;27.25;;;;;;;;4805931;29;14179;-80
2021/10/17 02:00:38;;;;;;;;;34.75;24.50;;;;;;;;2443964;29;37519617;-78
2021/10/17 02:03:03;;;;;;;;;31.50;26.00;;;;;;;;2558064;29;17862984;-78
2021/10/17 02:05:28;;;;;;;;;30.67;24.67;;;;;;;;4804010;29;8845;-80
2021/10/17 02:07:54;;;;;;;;;26.33;25.33;;;;;;;;4215082;29;11026299;-79
2021/10/17 02:10:24;;;;;;;;;13.50;13.50;;;;;;;;2243917;29;16406613;-81
2021/10/17 02:13:57;;;;;;;;;13.00;11.00;;;;;;;;1727061;29;74166112;-78
2021/10/17 02:16:28;;;;;;;;;25.00;13.50;;;;;;;;1007755;29;39028059;-78
2021/10/17 02:19:30;;;;;;;;;;;;;;;;;;1081636;29;118596312;-78
2021/10/17 02:21:56;;;;;;;;;30.75;26.00;;;;;;;;1579103;29;41200543;-81
2021/10/17 02:24:24;;;;;;;;;18.00;18.00;;;;;;;;1740986;29;21276903;-78
2021/10/17 02:27:22;;;;;;;;;13.00;12.50;;;;;;;;1482761;29;46228474;-80
2021/10/17 02:29:57;;;;;;;;;21.50;19.00;;;;;;;;2673194;29;15333790;-78
2021/10/17 02:32:28;;;;;;;;;14.50;12.50;;;;;;;;1292346;29;50458784;-81
2021/10/17 02:34:55;;;;;;;;;38.33;29.00;;;;;;;;2302369;29;20958178;-79
2021/10/17 02:37:27;;;;;;;;;36.00;21.33;;;;;;;;2243916;29;43412518;-78
2021/10/17 02:39:57;;;;;;;;;27.50;22.50;;;;;;;;2122700;29;17939453;-81
2021/10/17 02:42:23;;;;;;;;;26.50;24.25;;;;;;;;1569968;29;57141132;-81
2021/10/17 02:44:48;;;;;;;;;27.25;19.50;;;;;;;;3008881;29;6574271;-78
2021/10/17 02:47:13;;;;;;;;;29.50;25.75;;;;;;;;4034919;29;10254410;-78
2021/10/17 02:49:39;;;;;;;;;26.75;25.25;;;;;;;;4770917;29;793626;-81
2021/10/17 02:52:04;;;;;;;;;31.00;22.75;;;;;;;;4279362;29;4340466;-81
2021/10/17 02:54:29;;;;;;;;;28.25;25.25;;;;;;;;4729284;29;668904;-81
2021/10/17 02:56:54;;;;;;;;;30.25;25.00;;;;;;;;4722095;29;592725;-80
2021/10/17 02:59:20;;;;;;;;;34.00;23.67;;;;;;;;4755977;29;224825;-78
2021/10/17 03:01:45;;;;;;;;;35.75;23.25;;;;;;;;4766822;29;164128;-81
2021/10/17 03:04:10;;;;;;;;;23.00;20.33;;;;;;;;4766145;29;152924;-78
2021/10/17 03:06:35;;;;;;;;;26.67;21.00;;;;;;;;4731416;29;775746;-78
2021/10/17 03:09:01;;;;;;;;;25.75;23.00;;;;;;;;4739044;29;340948;-80
2021/10/17 03:11:26;;;;;;;;;24.50;22.75;;;;;;;;4663958;29;1313441;-78
2021/10/17 03:13:51;;;;;;;;;30.00;21.00;;;;;;;;4697957;29;500920;-81
2021/10/17 03:16:16;;;;;;;;;26.33;22.67;;;;;;;;4783425;29;91074;-81
2021/10/17 03:18:41;;;;;;;;;29.33;22.33;;;;;;;;4783190;29;160980;-79
2021/10/17 03:21:07;;;;;;;;;25.00;22.50;;;;;;;;4747528;29;505714;-78
2021/10/17 03:23:32;;;;;;;;;31.33;22.33;;;;;;;;4777320;29;45531;-78
2021/10/17 03:25:57;;;;;;;;;25.67;23.67;;;;;;;;4773405;29;45482;-78
2021/10/17 03:28:23;;;;;;;;;29.50;21.25;;;;;;;;4769918;29;45620;-78
2021/10/17 03:30:50;;;;;;;;;32.50;25.00;;;;;;;;4731814;29;1419420;-78
2021/10/17 03:33:16;;;;;;;;;30.50;23.25;;;;;;;;4769360;29;373654;-78
2021/10/17 03:35:41;;;;;;;;;24.25;21.25;;;;;;;;4792902;29;85064;-78
2021/10/17 03:38:06;;;;;;;;;26.50;22.75;;;;;;;;4711972;29;1258008;-79
2021/10/17 03:40:31;;;;;;;;;29.67;24.67;;;;;;;;4760836;29;238715;-78
2021/10/17 03:42:57;;;;;;;;;29.33;21.67;;;;;;;;4726122;29;868502;-78
2021/10/17 03:45:22;;;;;;;;;21.50;21.00;;;;;;;;4715718;29;1102728;-78
2021/10/17 03:47:47;;;;;;;;;25.25;21.50;;;;;;;;4786722;29;45480;-78
2021/10/17 03:50:12;;;;;;;;;24.25;20.50;;;;;;;;4756080;29;45824;-78
2021/10/17 03:52:38;;;;;;;;;27.50;22.50;;;;;;;;4752530;29;45358;-81
2021/10/17 03:55:04;;;;;;;;;30.00;23.00;;;;;;;;4787024;29;45315;-82
2021/10/17 03:57:29;;;;;;;;;26.50;22.25;;;;;;;;4784173;29;45891;-78
2021/10/17 03:59:54;;;;;;;;;28.33;20.67;;;;;;;;4783462;29;46805;-78
2021/10/17 04:02:19;;;;;;;;;24.67;23.67;;;;;;;;4779273;29;45449;-81
2021/10/17 04:04:44;;;;;;;;;36.33;22.33;;;;;;;;4776968;29;49720;-79
2021/10/17 04:07:10;;;;;;;;;25.50;21.25;;;;;;;;4781323;29;74662;-77
2021/10/17 04:09:35;;;;;;;;;29.00;22.33;;;;;;;;4765609;29;47625;-81
2021/10/17 04:12:00;;;;;;;;;25.00;20.00;;;;;;;;4776409;29;46186;-80
2021/10/17 04:14:25;;;;;;;;;25.25;21.25;;;;;;;;4775131;29;45607;-78
2021/10/17 04:16:51;;;;;;;;;29.00;21.00;;;;;;;;4777311;29;45621;-81
2021/10/17 04:19:16;;;;;;;;;30.67;24.33;;;;;;;;4774812;29;45777;-79
2021/10/17 04:21:41;;;;;;;;;28.00;21.67;;;;;;;;4781958;29;45532;-76
2021/10/17 04:24:06;;;;;;;;;24.67;19.00;;;;;;;;4773413;29;47639;-80
2021/10/17 04:26:32;;;;;;;;;25.00;21.25;;;;;;;;4778483;29;45516;-79
2021/10/17 04:28:57;;;;;;;;;32.25;23.75;;;;;;;;4766479;29;45769;-77
2021/10/17 04:31:23;;;;;;;;;28.33;23.33;;;;;;;;4764862;29;67261;-80
2021/10/17 04:33:48;;;;;;;;;31.33;24.00;;;;;;;;4773319;29;45596;-77
2021/10/17 04:36:13;;;;;;;;;32.25;28.50;;;;;;;;4749969;29;66005;-78
2021/10/17 04:38:39;;;;;;;;;29.67;22.33;;;;;;;;4767918;29;45625;-77
2021/10/17 04:41:04;;;;;;;;;31.50;24.75;;;;;;;;4747815;29;45953;-77
2021/10/17 04:43:30;;;;;;;;;30.67;24.00;;;;;;;;4755542;29;47640;-79
2021/10/17 04:45:55;;;;;;;;;30.25;23.75;;;;;;;;4762324;29;45535;-78
2021/10/17 04:48:20;;;;;;;;;24.67;22.00;;;;;;;;4764667;29;46283;-79
2021/10/17 04:50:45;;;;;;;;;28.33;26.00;;;;;;;;4769621;29;93448;-79
2021/10/17 04:53:11;;;;;;;;;28.67;24.67;;;;;;;;4770106;29;52590;-77
2021/10/17 04:55:36;;;;;;;;;26.33;23.00;;;;;;;;4763132;29;210311;-79
2021/10/17 04:58:03;;;;;;;;;28.50;24.25;;;;;;;;4762711;29;71851;-77
2021/10/17 05:00:28;;;;;;;;;31.50;24.50;;;;;;;;4758136;29;46202;-80
2021/10/17 05:02:53;;;;;;;;;30.33;24.00;;;;;;;;4744271;29;180212;-80
2021/10/17 05:05:18;;;;;;;;;25.33;24.00;;;;;;;;4768033;29;48750;-79
2021/10/17 05:07:44;;;;;;;;;32.33;24.00;;;;;;;;4755069;29;47589;-80
2021/10/17 05:10:09;;;;;;;;;30.67;25.00;;;;;;;;4757282;29;46598;-80
2021/10/17 05:12:34;;;;;;;;;28.00;21.33;;;;;;;;4752720;29;45978;-77
2021/10/17 05:14:59;;;;;;;;;32.67;23.67;;;;;;;;4755709;29;47998;-79
2021/10/17 05:17:25;;;;;;;;;27.33;23.67;;;;;;;;4754407;29;47853;-76
2021/10/17 05:19:50;;;;;;;;;33.67;24.00;;;;;;;;4764598;29;45621;-79
2021/10/17 05:22:15;;;;;;;;;28.00;23.33;;;;;;;;4771166;29;45634;-76
2021/10/17 05:24:40;;;;;;;;;26.75;22.25;;;;;;;;4769221;29;52940;-78
2021/10/17 05:27:05;;;;;;;;;24.00;20.00;;;;;;;;4762060;29;53381;-79
2021/10/17 05:29:31;;;;;;;;;25.33;22.33;;;;;;;;4771317;29;45662;-78
2021/10/17 05:31:56;;;;;;;;;25.00;20.00;;;;;;;;4760652;29;82776;-77
2021/10/17 05:34:21;;;;;;;;;22.67;20.67;;;;;;;;4770576;29;45611;-79
2021/10/17 05:36:46;;;;;;;;;26.00;19.33;;;;;;;;4765172;29;46270;-77
2021/10/17 05:39:12;;;;;;;;;20.00;19.67;;;;;;;;4764140;29;165028;-77
2021/10/17 05:41:37;;;;;;;;;27.75;23.50;;;;;;;;4774976;29;45853;-78
2021/10/17 05:44:02;;;;;;;;;28.67;21.33;;;;;;;;4772198;29;46148;-76
2021/10/17 05:46:28;;;;;;;;;27.25;21.25;;;;;;;;4772320;29;45551;-79
2021/10/17 05:48:53;;;;;;;;;28.00;24.00;;;;;;;;4751919;29;46606;-76
2021/10/17 05:51:18;;;;;;;;;23.25;20.50;;;;;;;;4765013;29;46038;-79
2021/10/17 05:53:43;;;;;;;;;29.00;20.00;;;;;;;;4771390;29;72789;-78
2021/10/17 05:56:09;;;;;;;;;28.00;23.33;;;;;;;;4766605;29;46221;-76
2021/10/17 05:58:34;;;;;;;;;26.33;23.67;;;;;;;;4768925;29;45559;-76
2021/10/17 06:00:59;;;;;;;;;25.33;21.67;;;;;;;;4766333;29;46303;-77
2021/10/17 06:03:24;;;;;;;;;20.33;19.00;;;;;;;;4763731;29;45572;-80
2021/10/17 06:05:50;;;;;;;;;25.67;22.67;;;;;;;;4767558;29;46130;-77
2021/10/17 06:08:15;;;;;;;;;27.25;23.50;;;;;;;;4770382;29;48673;-78
2021/10/17 06:10:41;;;;;;;;;24.25;22.25;;;;;;;;4763853;29;52475;-80
2021/10/17 06:13:06;;;;;;;;;32.75;23.50;;;;;;;;4765490;29;45841;-77
2021/10/17 06:15:32;;;;;;;;;23.33;20.33;;;;;;;;4768617;29;46022;-76
2021/10/17 06:17:57;;;;;;;;;28.00;23.00;;;;;;;;4760008;29;86490;-77
2021/10/17 06:20:22;;;;;;;;;20.33;20.33;;;;;;;;4769959;29;63050;-77
2021/10/17 06:22:47;;;;;;;;;29.50;21.00;;;;;;;;4768990;29;45652;-79
2021/10/17 06:25:13;;;;;;;;;26.67;20.67;;;;;;;;4770291;29;45360;-79
2021/10/17 06:27:38;;;;;;;;;23.33;19.00;;;;;;;;4772509;29;60146;-77
2021/10/17 06:30:03;;;;;;;;;27.33;23.33;;;;;;;;4772301;29;46014;-80
2021/10/17 06:32:29;;;;;;;;;22.50;19.75;;;;;;;;4770914;29;45571;-79
2021/10/17 06:34:54;;;;;;;;;25.50;21.25;;;;;;;;4778443;29;47269;-79
2021/10/17 06:37:19;;;;;;;;;29.67;21.33;;;;;;;;4774217;29;45936;-78
2021/10/17 06:39:44;;;;;;;;;24.67;19.67;;;;;;;;4778380;29;45886;-77
2021/10/17 06:42:10;;;;;;;;;21.67;19.00;;;;;;;;4773820;29;45499;-77
2021/10/17 06:44:36;;;;;;;;;20.75;17.25;;;;;;;;4774067;29;45904;-77
2021/10/17 06:47:01;;;;;;;;;23.50;19.25;;;;;;;;4763923;29;53775;-78
2021/10/17 06:49:26;;;;;;;;;20.50;19.25;;;;;;;;4763839;29;45570;-76
2021/10/17 06:51:52;;;;;;;;;20.67;19.67;;;;;;;;4763666;29;45542;-78
2021/10/17 06:54:17;;;;;;;;;21.67;17.33;;;;;;;;4771500;29;46004;-78
2021/10/17 06:56:42;;;;;;;;;27.67;22.00;;;;;;;;4779125;29;45659;-80
2021/10/17 06:59:08;;;;;;;;;26.50;18.00;;;;;;;;4763726;29;46017;-79
2021/10/17 07:01:33;;;;;;;;;32.75;23.50;;;;;;;;4767866;29;46702;-79
2021/10/17 07:03:58;;;;;;;;;25.33;23.33;;;;;;;;4770889;29;52104;-77
2021/10/17 07:06:23;;;;;;;;;24.00;18.25;;;;;;;;4772519;29;45675;-79
2021/10/17 07:08:48;;;;;;;;;33.00;24.67;;;;;;;;4777901;29;46322;-78
2021/10/17 07:11:14;;;;;;;;;23.00;18.00;;;;;;;;4776977;29;48006;-77
2021/10/17 07:13:39;;;;;;;;;14.33;14.33;;;;;;;;4772627;29;46543;-78
2021/10/17 07:16:04;;;;;;;;;25.00;18.00;;;;;;;;4769817;29;45878;-79
2021/10/17 07:18:29;;;;;;;;;24.33;19.33;;;;;;;;4780172;29;45869;-77
2021/10/17 07:20:54;;;;;;;;;18.67;17.33;;;;;;;;4772883;29;47309;-79
2021/10/17 07:23:20;;;;;;;;;22.00;19.67;;;;;;;;4779436;29;45604;-79
2021/10/17 07:25:45;;;;;;;;;25.25;23.50;;;;;;;;4765221;29;45529;-77
2021/10/17 07:28:10;;;;;;;;;30.25;20.00;;;;;;;;4763831;29;45821;-78
2021/10/17 07:30:36;;;;;;;;;29.00;21.67;;;;;;;;4775197;29;45532;-79
2021/10/17 07:33:02;;;;;;;;;28.00;23.50;;;;;;;;4776069;29;45852;-77
2021/10/17 07:35:27;;;;;;;;;28.00;20.00;;;;;;;;4771668;29;45712;-77
2021/10/17 07:37:52;;;;;;;;;50.67;38.00;;;;;;;;4767008;29;46921;-77
2021/10/17 07:40:17;;;;;;;;;47.00;39.00;;;;;;;;4773028;29;45637;-78
2021/10/17 07:42:43;;;;;;;;;38.75;31.25;;;;;;;;4772536;29;49068;-80
2021/10/17 07:45:08;;;;;;;;;30.00;24.67;;;;;;;;4775095;29;45540;-77
2021/10/17 07:47:34;;;;;;;;;38.75;29.50;;;;;;;;4773105;29;45682;-77
2021/10/17 07:49:59;;;;;;;;;31.75;29.00;;;;;;;;4734626;29;46115;-77
2021/10/17 07:52:25;;;;;;;;;36.00;28.33;;;;;;;;4761252;29;46397;-80
2021/10/17 07:54:50;;;;;;;;;33.00;27.33;;;;;;;;4754636;29;45727;-79
2021/10/17 07:57:15;;;;;;;;;26.00;22.33;;;;;;;;4757351;29;45566;-77
2021/10/17 07:59:40;;;;;;;;;28.67;23.00;;;;;;;;4749413;29;45783;-79
2021/10/17 08:02:06;;;;;;;;;30.33;24.67;;;;;;;;4735877;29;47353;-77
2021/10/17 08:04:31;;;;;;;;;29.00;24.50;;;;;;;;4753747;29;45616;-77
2021/10/17 08:06:56;;;;;;;;;32.75;25.75;;;;;;;;4761549;29;45394;-77
2021/10/17 08:09:21;;;;;;;;;35.33;25.00;;;;;;;;4742541;29;45611;-78
2021/10/17 08:11:46;;;;;;;;;31.33;24.33;;;;;;;;4763970;29;45665;-80
2021/10/17 08:14:12;;;;;;;;;30.33;24.67;;;;;;;;4762641;29;45867;-79
2021/10/17 08:16:37;;;;;;;;;24.00;22.00;;;;;;;;4763220;29;45267;-77
2021/10/17 08:19:03;;;;;;;;;29.75;25.00;;;;;;;;4757316;29;46561;-77
2021/10/17 08:21:30;;;;;;;;;27.75;23.50;;;;;;;;4747158;29;45995;-79
2021/10/17 08:23:55;;;;;;;;;28.50;24.25;;;;;;;;4749877;29;52005;-77
2021/10/17 08:26:20;;;;;;;;;29.00;23.33;;;;;;;;4742951;29;45863;-78
2021/10/17 08:28:45;;;;;;;;;30.00;25.00;;;;;;;;4740268;29;59873;-79
2021/10/17 08:31:11;;;;;;;;;28.67;25.00;;;;;;;;4747909;29;48138;-78
2021/10/17 08:33:36;;;;;;;;;30.33;22.00;;;;;;;;4752159;29;45941;-79
2021/10/17 08:36:01;;;;;;;;;26.33;25.67;;;;;;;;4757252;29;45921;-79
2021/10/17 08:38:27;;;;;;;;;29.75;22.75;;;;;;;;4752949;29;45941;-79
2021/10/17 08:40:56;;;;;;;;;33.33;28.33;;;;;;;;4762576;29;45928;-78
2021/10/17 08:43:21;;;;;;;;;38.00;24.25;;;;;;;;5145698;24;46102;-77
2021/10/17 08:45:46;;;;;;;;;28.00;26.00;;;;;;;;4782104;29;45812;-79
2021/10/17 08:48:12;;;;;;;;;31.00;24.33;;;;;;;;4781535;29;46291;-81
2021/10/17 08:50:38;;;;;;;;;29.75;22.00;;;;;;;;4784487;29;45897;-81
2021/10/17 08:53:03;;;;;;;;;28.50;22.50;;;;;;;;4797907;29;45326;-82
2021/10/17 08:58:04;;;;;;;;;29.75;25.75;;;;;;;;5106176;24;45636;-81
2021/10/17 09:00:30;;;;;;;;;40.25;30.00;;;;;;;;4813179;29;46227;-82
2021/10/17 09:02:55;;;;;;;;;29.75;20.00;;;;;;;;4811436;29;45769;-83
2021/10/17 09:05:40;;;;;;;;;23.67;21.67;;;;;;;;4813080;29;45562;-83
2021/10/17 09:08:08;;;;;;;;;30.25;23.00;;;;;;;;4824080;29;47259;-84
2021/10/17 09:10:34;;;;;;;;;23.25;18.25;;;;;;;;4813417;29;45560;-80
2021/10/17 09:13:06;;;;;;;;;19.75;18.75;;;;;;;;4804586;29;45511;-80
2021/10/17 09:15:32;;;;;;;;;23.75;17.25;;;;;;;;4816907;29;46011;-79
2021/10/17 09:18:09;;;;;;;;;24.50;17.50;;;;;;;;4818483;29;44882;-80
2021/10/17 09:20:47;;;;;;;;;19.25;18.00;;;;;;;;4794655;29;45633;-80
2021/10/17 09:23:32;;;;;;;;;16.75;15.00;;;;;;;;4829523;29;44961;-80
2021/10/17 09:25:59;;;;;;;;;23.75;18.50;;;;;;;;4952087;24;44876;-81
2021/10/17 09:28:26;;;;;;;;;24.75;19.25;;;;;;;;4804060;29;45306;-80
2021/10/17 09:30:58;;;;;;;;;20.25;16.50;;;;;;;;4794924;29;46272;-79
2021/10/17 09:33:24;;;;;;;;;23.25;19.75;;;;;;;;4783281;29;46703;-77
2021/10/17 09:35:49;;;;;;;;;17.00;15.50;;;;;;;;4789183;29;45574;-76
2021/10/17 09:38:19;;;;;;;;;22.33;18.67;;;;;;;;4793497;29;45531;-75
2021/10/17 09:40:46;;;;;;;;;18.25;17.75;;;;;;;;4794886;29;53089;-79
2021/10/17 09:43:21;;;;;;;;;19.00;17.25;;;;;;;;4793645;29;44908;-75
2021/10/17 09:45:46;;;;;;;;;18.75;18.75;;;;;;;;4802317;29;42283;-76
2021/10/17 09:55:56;;;;;;;;;15.00;14.25;;;;;;;;4802282;24;46749;-75
2021/10/17 09:58:22;;;;;;;;;18.00;16.67;;;;;;;;4776354;29;47058;-78
2021/10/17 10:00:47;;;;;;;;;18.00;14.00;;;;;;;;4767605;29;47359;-75
2021/10/17 10:03:12;;;;;;;;;18.00;17.75;;;;;;;;4781437;29;45851;-76
2021/10/17 10:05:39;;;;;;;;;18.50;15.25;;;;;;;;4790852;29;45598;-75
2021/10/17 10:08:06;;;;;;;;;16.00;13.50;;;;;;;;4796827;29;45893;-75
2021/10/17 10:10:31;;;;;;;;;14.75;13.00;;;;;;;;4788583;29;45632;-77
2021/10/17 10:13:01;;;;;;;;;17.33;11.33;;;;;;;;4788924;29;45847;-77
2021/10/17 10:15:26;;;;;;;;;13.50;10.25;;;;;;;;4787463;29;45936;-75
2021/10/17 10:17:53;;;;;;;;;13.25;13.00;;;;;;;;4784985;29;47870;-77
2021/10/17 10:20:19;;;;;;;;;12.75;10.00;;;;;;;;4797188;29;46478;-78
2021/10/17 10:22:46;;;;;;;;;9.50;9.00;;;;;;;;4792392;29;45711;-76
2021/10/17 10:25:14;;;;;;;;;13.00;11.00;;;;;;;;4776040;29;339825;-76
2021/10/17 10:30:31;;;;;;;;;19.25;14.00;;;;;;;;4991914;23;45154;-76
2021/10/17 10:33:24;;;;;;;;;14.25;13.25;;;;;;;;4776395;29;45698;-77
2021/10/17 10:36:05;;;;;;;;;15.25;13.00;;;;;;;;4781581;29;44889;-78
2021/10/17 10:38:49;;;;;;;;;11.75;10.50;;;;;;;;4788372;29;45682;-78
2021/10/17 10:41:15;;;;;;;;;14.00;11.25;;;;;;;;4784911;29;45568;-80
2021/10/17 10:43:40;;;;;;;;;17.00;12.50;;;;;;;;4776119;29;44999;-77
2021/10/17 10:46:05;;;;;;;;;15.00;11.33;;;;;;;;4788965;29;45455;-79
2021/10/17 10:48:43;;;;;;;;;14.50;11.75;;;;;;;;4782645;29;44950;-77
2021/10/17 10:51:09;;;;;;;;;13.50;12.00;;;;;;;;4782288;29;45525;-76
2021/10/17 10:53:54;;;;;;;;;13.00;11.67;;;;;;;;4795105;29;44704;-77
2021/10/17 10:56:37;;;;;;;;;13.50;11.25;;;;;;;;4787803;29;42435;-82
2021/10/17 10:59:02;;;;;;;;;11.75;10.00;;;;;;;;4780110;29;45565;-85
2021/10/17 11:01:47;;;;;;;;;15.00;11.50;;;;;;;;4681661;29;1786111;-81
2021/10/17 11:04:32;;;;;;;;;11.75;11.00;;;;;;;;4776822;29;114401;-79
2021/10/17 11:07:15;;;;;;;;;10.50;10.50;;;;;;;;4789229;29;45460;-76
2021/10/17 11:09:41;;;;;;;;;13.25;12.50;;;;;;;;4767982;29;44844;-78
2021/10/17 11:12:07;;;;;;;;;15.67;14.33;;;;;;;;4767633;29;45464;-76
2021/10/17 11:14:32;;;;;;;;;15.00;10.25;;;;;;;;4792846;29;45512;-79
2021/10/17 11:17:04;;;;;;;;;21.25;14.50;;;;;;;;4771276;29;237085;-76
2021/10/17 11:19:29;;;;;;;;;10.00;10.00;;;;;;;;4779135;29;45598;-78
2021/10/17 11:22:01;;;;;;;;;18.50;14.50;;;;;;;;4770101;29;45504;-77
2021/10/17 11:24:27;;;;;;;;;14.50;11.75;;;;;;;;4769652;29;49192;-76
2021/10/17 11:35:30;;;;;;;;;15.00;12.00;;;;;;;;4842770;24;45575;-78
2021/10/17 11:40:36;;;;;;;;;17.00;13.00;;;;;;;;4895352;24;45879;-76
2021/10/17 11:43:05;;;;;;;;;12.00;10.00;;;;;;;;4810564;29;45638;-78
2021/10/17 11:45:41;;;;;;;;;11.75;11.00;;;;;;;;4800634;29;45815;-79
2021/10/17 11:48:07;;;;;;;;;17.25;14.00;;;;;;;;4793485;29;45524;-78
2021/10/17 11:50:33;;;;;;;;;9.75;7.50;;;;;;;;4792322;29;45399;-77
2021/10/17 11:52:59;;;;;;;;;12.00;11.25;;;;;;;;4795010;29;57678;-77
2021/10/17 11:55:28;;;;;;;;;13.25;13.00;;;;;;;;4799347;29;45610;-79
2021/10/17 11:57:53;;;;;;;;;13.00;13.00;;;;;;;;4787204;29;252228;-79
2021/10/17 12:00:23;;;;;;;;;12.00;11.00;;;;;;;;4776853;29;674935;-79
2021/10/17 12:02:50;;;;;;;;;10.75;10.75;;;;;;;;4782575;29;175936;-78
2021/10/17 12:05:16;;;;;;;;;13.25;12.00;;;;;;;;4798469;29;45534;-78
2021/10/17 12:07:42;;;;;;;;;12.00;9.75;;;;;;;;4803642;29;45564;-77
2021/10/17 12:10:10;;;;;;;;;13.00;11.50;;;;;;;;4799582;29;45613;-79
2021/10/17 12:12:39;;;;;;;;;12.25;11.75;;;;;;;;4779409;29;47512;-79
2021/10/17 12:15:09;;;;;;;;;12.75;12.75;;;;;;;;4795145;29;45554;-79
2021/10/17 12:17:34;;;;;;;;;9.50;9.50;;;;;;;;4795354;29;45820;-78
2021/10/17 12:20:00;;;;;;;;;11.25;11.25;;;;;;;;4794623;29;46777;-79
2021/10/17 12:22:26;;;;;;;;;13.75;10.50;;;;;;;;4794776;29;109857;-79
2021/10/17 12:24:51;;;;;;;;;10.75;10.75;;;;;;;;4791717;29;173152;-78
2021/10/17 12:27:32;;;;;;;;;16.25;12.00;;;;;;;;4799481;29;45562;-78
2021/10/17 12:30:12;;;;;;;;;11.25;9.75;;;;;;;;4800088;29;72278;-78
2021/10/17 12:32:52;;;;;;;;;9.75;9.75;;;;;;;;4795857;29;46503;-78
2021/10/17 12:35:36;;;;;;;;;10.75;10.75;;;;;;;;4706389;29;1085670;-78
2021/10/17 12:38:11;;;;;;;;;10.50;8.00;;;;;;;;4796912;29;47370;-79
2021/10/17 12:40:55;;;;;;;;;8.75;6.75;;;;;;;;4807182;29;45601;-78
2021/10/17 12:43:24;;;;;;;;;5.00;5.00;;;;;;;;4801473;29;57270;-78
2021/10/17 12:45:50;;;;;;;;;9.75;6.50;;;;;;;;4803958;29;71709;-79
2021/10/17 12:48:17;;;;;;;;;4.25;4.25;;;;;;;;4794037;29;45985;-78
2021/10/17 12:50:44;;;;;;;;;7.25;5.00;;;;;;;;4803177;29;45719;-78
2021/10/17 12:53:11;;;;;;;;;7.50;5.75;;;;;;;;4795555;29;46566;-78
2021/10/17 12:55:39;;;;;;;;;6.00;4.00;;;;;;;;4801343;29;45663;-78
2021/10/17 12:58:13;;;;;;;;;9.25;5.75;;;;;;;;4799389;29;45654;-76
2021/10/17 13:00:39;;;;;;;;;3.75;3.75;;;;;;;;4795651;29;47134;-78
2021/10/17 13:03:12;;;;;;;;;3.75;3.75;;;;;;;;4792925;29;46010;-78
2021/10/17 13:05:47;;;;;;;;;4.25;3.50;;;;;;;;4793941;29;45778;-78
2021/10/17 13:08:13;;;;;;;;;3.25;3.25;;;;;;;;4796910;29;46820;-79
2021/10/17 13:10:38;;;;;;;;;5.00;5.00;;;;;;;;4798776;29;45855;-79
2021/10/17 13:13:13;;;;;;;;;5.67;2.00;;;;;;;;4796743;29;45615;-78
2021/10/17 13:15:38;;;;;;;;;3.75;3.75;;;;;;;;4795840;29;45885;-78
2021/10/17 13:18:04;;;;;;;;;4.00;3.00;;;;;;;;4795466;29;45597;-78
2021/10/17 13:20:31;;;;;;;;;3.25;3.00;;;;;;;;4784445;29;45818;-79
2021/10/17 13:23:00;;;;;;;;;4.00;4.00;;;;;;;;4798362;29;45534;-78
2021/10/17 13:25:26;;;;;;;;;4.00;3.00;;;;;;;;4788661;29;45651;-78
2021/10/17 13:27:53;;;;;;;;;5.25;5.25;;;;;;;;4796055;29;45771;-78
2021/10/17 13:30:18;;;;;;;;;4.75;4.75;;;;;;;;4797614;29;45695;-79
2021/10/17 13:32:50;;;;;;;;;5.75;4.00;;;;;;;;4812061;24;46008;-94
2021/10/17 13:35:17;;;;;;;;;5.00;4.00;;;;;;;;4783874;24;45543;-78
2021/10/17 13:37:43;;;;;;;;;4.25;4.00;;;;;;;;4780394;29;45651;-77
2021/10/17 13:40:09;;;;;;;;;4.25;3.25;;;;;;;;4780806;29;45584;-78
2021/10/17 13:42:34;;;;;;;;;4.75;4.50;;;;;;;;4777789;29;46249;-78
2021/10/17 13:44:59;;;;;;;;;4.50;3.50;;;;;;;;4780529;29;45559;-78
2021/10/17 13:47:24;;;;;;;;;7.25;3.75;;;;;;;;4779128;29;45655;-79
2021/10/17 13:49:50;;;;;;;;;6.25;4.75;;;;;;;;4777722;29;45589;-79
2021/10/17 13:52:15;;;;;;;;;3.50;2.00;;;;;;;;4780126;29;46107;-77
2021/10/17 13:54:41;;;;;;;;;5.25;4.00;;;;;;;;4783885;29;45570;-75
2021/10/17 13:57:06;;;;;;;;;3.75;3.75;;;;;;;;4774802;29;57061;-75
2021/10/17 13:59:32;;;;;;;;;4.00;4.00;;;;;;;;4783906;29;45480;-76
2021/10/17 14:02:00;;;;;;;;;4.00;3.75;;;;;;;;4774671;29;46229;-76
2021/10/17 14:04:26;;;;;;;;;5.00;4.75;;;;;;;;4782928;29;45482;-75
2021/10/17 14:06:51;;;;;;;;;6.50;5.50;;;;;;;;4779971;29;45742;-76
2021/10/17 14:09:17;;;;;;;;;4.67;4.33;;;;;;;;4771153;29;54749;-75
2021/10/17 14:11:42;;;;;;;;;4.50;4.25;;;;;;;;4767114;29;48520;-75
2021/10/17 14:14:07;;;;;;;;;4.00;4.00;;;;;;;;4785434;29;45583;-74
2021/10/17 14:16:33;;;;;;;;;8.00;4.50;;;;;;;;4781168;29;47969;-76
2021/10/17 14:18:58;;;;;;;;;4.00;4.00;;;;;;;;4785788;29;45503;-77
2021/10/17 14:21:23;;;;;;;;;4.00;4.00;;;;;;;;4783000;29;45593;-77
2021/10/17 14:23:49;;;;;;;;;4.00;4.00;;;;;;;;4792252;29;45573;-77
2021/10/17 14:26:14;;;;;;;;;3.00;3.00;;;;;;;;4779592;29;80544;-77
2021/10/17 14:28:44;;;;;;;;;3.50;3.50;;;;;;;;4783724;29;46291;-77
2021/10/17 14:36:20;;;;;;;;;4.00;4.00;;;;;;;;4791878;29;45448;-77
2021/10/17 14:38:46;;;;;;;;;5.50;3.75;;;;;;;;4796243;29;45616;-77
2021/10/17 14:41:11;;;;;;;;;7.00;6.50;;;;;;;;4782852;29;45674;-76
2021/10/17 14:43:36;;;;;;;;;4.00;4.00;;;;;;;;4769431;29;310944;-77
2021/10/17 14:46:02;;;;;;;;;2.75;2.75;;;;;;;;4783922;29;62457;-77
2021/10/17 14:48:27;;;;;;;;;5.50;5.00;;;;;;;;4786423;29;45637;-77